KCDC/CDC METAR and TAF weather

Enter ICAO airport designator
Station Type Date Time Source
KCDC METAR 2023/01/30 10:59 UTC NOAA

KCDC 301059Z AUTO 03005KT 3SM -SN BR BKN014 OVC019 M06/M08 A2993 RMK AO2 P0000 T10561078


Station Type Date Time Source
KCDC Decoded METAR 2023/01/30 10:59 UTC NOAA

CEDAR CITY MUN AIRPORT, UT, United States (KCDC) 37-42N 113-06W 1714M
Jan 30, 2023 - 05:59 AM EST / 2023.01.30 1059 UTC
Wind: from the NNE (030 degrees) at 6 MPH (5 KT):0
Visibility: 3 mile(s):0
Sky conditions: overcast
Weather: light snow; mist
Precipitation last hour: A trace
Temperature: 21.9 F (-5.6 C)
Windchill: 14 F (-10 C):1
Dew Point: 18.0 F (-7.8 C)
Relative Humidity: 84%
Pressure (altimeter): 29.93 in. Hg (1013 hPa)
ob: KCDC 301059Z AUTO 03005KT 3SM -SN BR BKN014 OVC019 M06/M08 A2993 RMK AO2 P0000 T10561078
cycle: 11

Station Type Date Time Source
KCDC TAF 2023/01/30 12:42 UTC NOAA

TAF KCDC 301141Z 3012/3112 35006KT 5SM -SN BR SCT008 OVC015
TEMPO 3015/3018 3SM -SN
FM302300 01005KT P6SM VCSH BKN020 OVC030
FM310000 01006KT P6SM FEW020 BKN035

Example: see airport list